Time;durP1;ratioP1;P1;durP2;ratioP2;P2;SDS_P1;SDS_P2;PMS_P1;PMS_P2;Temp;Humidity;BMP_temperature;BMP_pressure;BME280_temperature;BME280_humidity;BME280_pressure;Samples;Min_cycle;Max_cycle;Signal;HPM_P1;HPM_P2
2022/05/06 00:01:30;;;;;;;3.40;1.60;;;;;;;;;;5046388;28;20442;-86
2022/05/06 00:03:56;;;;;;;2.00;1.60;;;;;;;;;;5044923;28;20427;-85
2022/05/06 00:06:22;;;;;;;2.20;1.60;;;;;;;;;;5046312;28;20822;-85
2022/05/06 00:08:48;;;;;;;3.67;1.67;;;;;;;;;;5046077;28;20402;-86
2022/05/06 00:11:14;;;;;;;5.23;2.10;;;;;;;;;;5047908;28;20421;-84
2022/05/06 00:13:41;;;;;;;3.00;1.90;;;;;;;;;;5055141;28;20462;-83
2022/05/06 00:16:07;;;;;;;5.03;1.93;;;;;;;;;;5051005;28;20421;-85
2022/05/06 00:18:33;;;;;;;3.97;1.67;;;;;;;;;;5048609;28;20403;-85
2022/05/06 00:21:00;;;;;;;3.90;1.53;;;;;;;;;;5046482;28;20468;-85
2022/05/06 00:23:26;;;;;;;4.03;2.00;;;;;;;;;;5046597;28;20427;-85
2022/05/06 00:25:52;;;;;;;3.67;2.10;;;;;;;;;;5045248;28;20403;-85
2022/05/06 00:28:18;;;;;;;3.87;2.40;;;;;;;;;;5045191;28;20438;-85
2022/05/06 00:30:44;;;;;;;4.23;1.83;;;;;;;;;;5045965;28;20474;-85
2022/05/06 00:33:10;;;;;;;3.80;2.37;;;;;;;;;;5045210;28;20422;-85
2022/05/06 00:35:37;;;;;;;2.70;1.77;;;;;;;;;;5045855;28;20477;-85
2022/05/06 00:38:03;;;;;;;3.40;2.20;;;;;;;;;;5043395;28;20398;-85
2022/05/06 00:40:29;;;;;;;3.37;2.03;;;;;;;;;;5044697;28;20442;-85
2022/05/06 00:42:56;;;;;;;3.90;2.33;;;;;;;;;;5042907;28;20469;-87
2022/05/06 00:45:22;;;;;;;2.80;1.87;;;;;;;;;;5041459;28;20891;-87
2022/05/06 00:47:49;;;;;;;2.90;2.00;;;;;;;;;;5040333;28;20472;-86
2022/05/06 00:50:16;;;;;;;2.70;2.00;;;;;;;;;;5039189;28;20827;-87
2022/05/06 00:52:42;;;;;;;2.67;2.00;;;;;;;;;;5042669;28;20797;-85
2022/05/06 00:55:09;;;;;;;3.60;2.33;;;;;;;;;;5044094;28;20399;-85
2022/05/06 00:57:35;;;;;;;4.80;2.30;;;;;;;;;;5043982;28;20464;-85
2022/05/06 01:00:20;;;;;;;2.70;2.30;;;;;;;;;;5042191;28;20469;-84
2022/05/06 01:02:46;;;;;;;3.50;2.43;;;;;;;;;;5039893;28;20521;-84
2022/05/06 01:05:13;;;;;;;3.83;2.47;;;;;;;;;;5040866;28;20405;-83
2022/05/06 01:07:40;;;;;;;2.23;1.80;;;;;;;;;;5042696;28;20448;-85
2022/05/06 01:10:06;;;;;;;3.00;2.30;;;;;;;;;;5042478;28;20426;-83
2022/05/06 01:12:33;;;;;;;3.80;2.23;;;;;;;;;;5040811;28;20410;-85
2022/05/06 01:14:59;;;;;;;3.20;1.97;;;;;;;;;;5041885;28;20426;-86
2022/05/06 01:17:26;;;;;;;2.70;2.20;;;;;;;;;;5041927;28;20390;-86
2022/05/06 01:19:52;;;;;;;3.97;2.30;;;;;;;;;;5041958;28;20406;-86
2022/05/06 01:22:18;;;;;;;3.20;2.20;;;;;;;;;;5050701;28;20473;-84
2022/05/06 01:24:44;;;;;;;7.00;2.47;;;;;;;;;;5059254;28;20401;-86
2022/05/06 01:27:28;;;;;;;2.30;1.70;;;;;;;;;;5042962;28;20399;-87
2022/05/06 01:29:55;;;;;;;2.60;1.90;;;;;;;;;;5043140;28;20405;-86
2022/05/06 01:32:22;;;;;;;3.63;2.40;;;;;;;;;;5042881;28;20437;-86
2022/05/06 01:34:49;;;;;;;2.60;2.20;;;;;;;;;;5042839;28;20484;-86
2022/05/06 01:37:16;;;;;;;3.30;2.87;;;;;;;;;;5042907;28;20410;-86
2022/05/06 01:39:43;;;;;;;3.10;2.73;;;;;;;;;;5041979;28;20403;-86
2022/05/06 01:42:12;;;;;;;3.57;2.37;;;;;;;;;;5042115;28;20462;-86
2022/05/06 01:44:40;;;;;;;5.63;3.17;;;;;;;;;;5042431;28;20645;-86
2022/05/06 01:47:10;;;;;;;4.07;2.83;;;;;;;;;;5046523;28;20407;-84
2022/05/06 01:49:39;;;;;;;4.60;2.00;;;;;;;;;;5045001;28;20383;-86
2022/05/06 01:52:07;;;;;;;2.53;2.00;;;;;;;;;;5042951;28;20434;-86
2022/05/06 01:54:33;;;;;;;2.70;2.37;;;;;;;;;;5039888;28;20426;-86
2022/05/06 01:57:00;;;;;;;3.07;2.17;;;;;;;;;;5041943;28;20422;-86
2022/05/06 01:59:26;;;;;;;3.00;2.23;;;;;;;;;;5041526;28;20412;-86
2022/05/06 02:01:52;;;;;;;2.70;2.30;;;;;;;;;;5041136;28;20549;-87
2022/05/06 02:07:02;;;;;;;6.43;3.03;;;;;;;;;;5041179;28;20382;-86
2022/05/06 02:09:28;;;;;;;3.57;2.80;;;;;;;;;;5041532;28;20398;-86
2022/05/06 02:11:55;;;;;;;3.00;2.33;;;;;;;;;;5042011;28;20462;-86
2022/05/06 02:14:21;;;;;;;4.43;2.87;;;;;;;;;;5040451;28;20433;-86
2022/05/06 02:16:47;;;;;;;3.83;2.93;;;;;;;;;;5042187;28;20483;-86
2022/05/06 02:19:13;;;;;;;7.30;4.00;;;;;;;;;;5041378;28;20819;-86
2022/05/06 02:21:39;;;;;;;5.10;2.63;;;;;;;;;;5038866;28;20454;-84
2022/05/06 02:24:06;;;;;;;4.33;2.70;;;;;;;;;;5040805;28;20410;-87
2022/05/06 02:26:32;;;;;;;3.20;2.13;;;;;;;;;;5044073;28;20403;-85
2022/05/06 02:28:58;;;;;;;3.90;2.70;;;;;;;;;;5043945;28;20402;-85
2022/05/06 02:34:15;;;;;;;7.27;2.40;;;;;;;;;;5044372;28;20390;-85
2022/05/06 02:36:41;;;;;;;2.93;2.47;;;;;;;;;;5043442;28;20406;-85
2022/05/06 02:39:07;;;;;;;6.60;2.70;;;;;;;;;;5044239;28;20433;-85
2022/05/06 02:41:34;;;;;;;3.70;2.40;;;;;;;;;;5044499;28;20454;-85
2022/05/06 02:44:02;;;;;;;3.70;3.07;;;;;;;;;;5052132;28;20506;-83
2022/05/06 02:46:28;;;;;;;6.30;2.10;;;;;;;;;;5049819;28;20446;-85
2022/05/06 02:48:54;;;;;;;3.73;3.03;;;;;;;;;;5043143;28;20394;-86
2022/05/06 02:51:20;;;;;;;3.07;2.50;;;;;;;;;;5043633;28;20398;-86
2022/05/06 02:53:46;;;;;;;4.60;2.60;;;;;;;;;;5043255;28;20827;-86
2022/05/06 02:56:12;;;;;;;3.10;2.47;;;;;;;;;;5044007;28;20476;-86
2022/05/06 02:58:38;;;;;;;3.40;2.70;;;;;;;;;;5044015;28;20410;-85
2022/05/06 03:01:04;;;;;;;3.80;2.60;;;;;;;;;;5043825;28;20488;-85
2022/05/06 03:03:33;;;;;;;2.90;2.60;;;;;;;;;;5047574;28;20418;-85
2022/05/06 03:06:00;;;;;;;2.90;2.50;;;;;;;;;;5047778;28;20390;-85
2022/05/06 03:08:26;;;;;;;5.30;2.73;;;;;;;;;;5047883;28;20410;-85
2022/05/06 03:10:52;;;;;;;4.10;2.80;;;;;;;;;;5045661;28;20429;-85
2022/05/06 03:13:18;;;;;;;6.53;2.97;;;;;;;;;;5048223;28;20509;-85
2022/05/06 03:15:45;;;;;;;2.43;2.10;;;;;;;;;;5047981;28;20437;-85
2022/05/06 03:18:11;;;;;;;4.73;2.60;;;;;;;;;;5047021;28;20410;-85
2022/05/06 03:20:38;;;;;;;3.27;2.60;;;;;;;;;;5050495;28;20461;-84
2022/05/06 03:23:04;;;;;;;3.13;2.53;;;;;;;;;;5053770;28;20429;-84
2022/05/06 03:25:31;;;;;;;5.43;2.87;;;;;;;;;;5050551;28;20441;-85
2022/05/06 03:28:02;;;;;;;6.00;3.37;;;;;;;;;;5047531;28;20977;-85
2022/05/06 03:30:30;;;;;;;4.23;2.90;;;;;;;;;;5046764;28;20390;-84
2022/05/06 03:32:58;;;;;;;4.20;3.33;;;;;;;;;;5027574;28;20453;-85
2022/05/06 03:35:28;;;;;;;3.87;3.10;;;;;;;;;;5027347;28;20407;-85
2022/05/06 03:37:54;;;;;;;4.63;3.30;;;;;;;;;;5026891;28;20403;-86
2022/05/06 03:40:20;;;;;;;3.20;2.90;;;;;;;;;;5026951;28;20442;-86
2022/05/06 03:42:46;;;;;;;3.77;3.13;;;;;;;;;;5074895;23;20510;-85
2022/05/06 03:45:13;;;;;;;4.27;3.60;;;;;;;;;;5068731;28;20460;-82
2022/05/06 03:47:39;;;;;;;4.07;3.03;;;;;;;;;;5070777;28;20473;-82
2022/05/06 03:52:50;;;;;;;4.53;3.70;;;;;;;;;;5069584;28;20468;-82
2022/05/06 03:55:17;;;;;;;5.87;4.17;;;;;;;;;;5070143;28;20474;-82
2022/05/06 03:57:43;;;;;;;4.57;3.47;;;;;;;;;;5069263;28;20435;-82
2022/05/06 04:00:14;;;;;;;4.57;3.73;;;;;;;;;;5068879;28;20410;-83
2022/05/06 04:02:40;;;;;;;5.73;3.63;;;;;;;;;;5069376;28;20445;-83
2022/05/06 04:05:07;;;;;;;4.03;3.57;;;;;;;;;;5070608;28;20401;-83
2022/05/06 04:07:33;;;;;;;3.90;3.43;;;;;;;;;;5070156;28;20409;-83
2022/05/06 04:09:59;;;;;;;4.80;4.13;;;;;;;;;;5069939;28;20397;-83
2022/05/06 04:12:25;;;;;;;6.70;3.63;;;;;;;;;;5069302;28;20421;-83
2022/05/06 04:14:51;;;;;;;7.07;4.73;;;;;;;;;;5068293;28;20520;-83
2022/05/06 04:17:20;;;;;;;5.90;4.50;;;;;;;;;;5070479;28;20779;-83
2022/05/06 04:25:16;;;;;;;4.27;3.80;;;;;;;;;;5069485;28;20385;-83
2022/05/06 04:27:43;;;;;;;8.60;5.03;;;;;;;;;;5068903;28;20500;-83
2022/05/06 04:30:09;;;;;;;4.60;3.67;;;;;;;;;;5070282;28;20458;-83
2022/05/06 04:32:35;;;;;;;6.43;3.30;;;;;;;;;;5070030;28;20448;-83
2022/05/06 04:35:04;;;;;;;8.80;4.50;;;;;;;;;;5069983;28;20416;-83
2022/05/06 04:37:30;;;;;;;5.47;3.07;;;;;;;;;;5068649;28;20473;-83
2022/05/06 04:39:58;;;;;;;5.47;3.77;;;;;;;;;;5069439;28;20401;-83
2022/05/06 04:42:24;;;;;;;5.30;4.70;;;;;;;;;;5069177;28;20456;-83
2022/05/06 04:44:50;;;;;;;5.60;4.70;;;;;;;;;;5069630;28;20414;-83
2022/05/06 04:47:16;;;;;;;6.30;4.93;;;;;;;;;;5070072;28;20417;-83
2022/05/06 04:49:42;;;;;;;5.47;3.70;;;;;;;;;;5070930;28;20405;-81
2022/05/06 04:52:08;;;;;;;5.53;3.70;;;;;;;;;;5073067;28;20765;-82
2022/05/06 04:54:35;;;;;;;5.50;4.37;;;;;;;;;;5070525;28;20401;-83
2022/05/06 04:57:01;;;;;;;13.13;4.27;;;;;;;;;;5070436;28;20409;-83
2022/05/06 04:59:27;;;;;;;5.77;4.10;;;;;;;;;;5069610;28;20489;-83
2022/05/06 05:01:53;;;;;;;6.03;4.43;;;;;;;;;;5070010;28;20457;-84
2022/05/06 05:04:19;;;;;;;6.33;4.20;;;;;;;;;;5069935;28;20520;-82
2022/05/06 05:06:46;;;;;;;6.77;4.27;;;;;;;;;;5070158;28;20406;-83
2022/05/06 05:09:12;;;;;;;5.87;4.50;;;;;;;;;;5070323;28;20378;-83
2022/05/06 05:11:39;;;;;;;6.80;4.90;;;;;;;;;;5068048;28;20420;-83
2022/05/06 05:14:06;;;;;;;4.67;3.80;;;;;;;;;;5068830;28;20435;-83
2022/05/06 05:16:33;;;;;;;5.67;4.10;;;;;;;;;;5069561;28;20412;-83
2022/05/06 05:18:59;;;;;;;6.70;4.10;;;;;;;;;;5062666;28;20417;-82
2022/05/06 05:21:25;;;;;;;4.77;3.90;;;;;;;;;;5056912;28;20453;-82
2022/05/06 05:23:52;;;;;;;6.30;4.30;;;;;;;;;;5056207;28;20430;-82
2022/05/06 05:26:18;;;;;;;7.17;4.17;;;;;;;;;;5057969;28;20401;-82
2022/05/06 05:28:44;;;;;;;6.47;4.20;;;;;;;;;;5058502;28;20918;-83
2022/05/06 05:31:10;;;;;;;5.07;4.00;;;;;;;;;;5057675;28;20414;-82
2022/05/06 05:33:36;;;;;;;5.00;3.90;;;;;;;;;;5057313;28;20433;-81
2022/05/06 05:36:02;;;;;;;6.23;4.10;;;;;;;;;;5058537;28;20417;-82
2022/05/06 05:38:29;;;;;;;5.03;4.00;;;;;;;;;;5063442;28;20417;-83
2022/05/06 05:40:55;;;;;;;4.40;4.00;;;;;;;;;;5066800;28;20563;-83
2022/05/06 05:48:54;;;;;;;7.80;4.40;;;;;;;;;;5066365;28;20452;-83
2022/05/06 05:51:20;;;;;;;9.63;4.50;;;;;;;;;;5064896;28;20467;-83
2022/05/06 05:53:46;;;;;;;6.80;4.30;;;;;;;;;;5066345;28;20460;-83
2022/05/06 05:56:12;;;;;;;5.70;5.07;;;;;;;;;;5068171;28;20465;-83
2022/05/06 05:58:38;;;;;;;4.90;4.07;;;;;;;;;;5067923;28;20468;-83
2022/05/06 06:01:08;;;;;;;6.60;5.17;;;;;;;;;;5067693;28;20957;-83
2022/05/06 06:03:35;;;;;;;8.23;4.27;;;;;;;;;;5067559;28;20977;-83
2022/05/06 06:06:01;;;;;;;4.10;3.70;;;;;;;;;;5065874;28;20393;-83
2022/05/06 06:08:27;;;;;;;3.73;3.33;;;;;;;;;;5068326;28;20417;-84
2022/05/06 06:10:53;;;;;;;5.53;4.47;;;;;;;;;;5068625;28;20401;-84
2022/05/06 06:13:20;;;;;;;4.10;3.70;;;;;;;;;;5068464;28;20452;-84
2022/05/06 06:15:46;;;;;;;6.50;3.10;;;;;;;;;;5067934;28;20414;-84
2022/05/06 06:18:12;;;;;;;5.10;3.60;;;;;;;;;;5068159;28;20401;-84
2022/05/06 06:20:38;;;;;;;4.60;3.17;;;;;;;;;;5071456;28;20456;-83
2022/05/06 06:23:04;;;;;;;3.20;2.90;;;;;;;;;;5072734;28;20933;-83
2022/05/06 06:25:30;;;;;;;3.57;2.60;;;;;;;;;;5068488;28;20464;-84
2022/05/06 06:27:56;;;;;;;3.23;2.63;;;;;;;;;;5068982;28;20410;-84
2022/05/06 06:30:23;;;;;;;3.47;2.47;;;;;;;;;;5070121;28;20416;-83
2022/05/06 06:32:51;;;;;;;4.43;2.63;;;;;;;;;;5073341;28;20426;-83
2022/05/06 06:35:18;;;;;;;3.37;2.10;;;;;;;;;;5072570;28;20461;-83
2022/05/06 06:37:44;;;;;;;2.60;2.20;;;;;;;;;;5073108;28;20401;-82
2022/05/06 06:40:11;;;;;;;2.70;2.37;;;;;;;;;;5073154;28;20478;-83
2022/05/06 06:42:38;;;;;;;3.37;2.30;;;;;;;;;;5073167;28;20464;-83
2022/05/06 06:45:04;;;;;;;3.17;2.87;;;;;;;;;;5072826;28;20389;-83
2022/05/06 06:47:30;;;;;;;3.40;2.40;;;;;;;;;;5070029;28;20397;-84
2022/05/06 06:49:58;;;;;;;3.37;2.90;;;;;;;;;;5069604;28;20766;-84
2022/05/06 06:52:24;;;;;;;4.40;2.73;;;;;;;;;;5068998;28;20421;-84
2022/05/06 06:54:50;;;;;;;3.57;2.67;;;;;;;;;;5041698;28;20414;-83
2022/05/06 06:57:16;;;;;;;4.43;2.90;;;;;;;;;;5027605;28;20411;-83
2022/05/06 06:59:42;;;;;;;4.00;2.50;;;;;;;;;;5027401;28;20407;-83
2022/05/06 07:02:08;;;;;;;3.23;2.57;;;;;;;;;;5029277;28;20447;-81
2022/05/06 07:04:34;;;;;;;6.47;3.10;;;;;;;;;;5048057;28;20510;-84
2022/05/06 07:12:30;;;;;;;3.17;2.50;;;;;;;;;;5028550;28;20870;-83
2022/05/06 07:14:56;;;;;;;3.10;2.70;;;;;;;;;;5040549;28;20410;-85
2022/05/06 07:17:23;;;;;;;3.33;2.70;;;;;;;;;;5040432;28;21020;-83
2022/05/06 07:19:50;;;;;;;3.67;2.40;;;;;;;;;;5029306;28;20438;-84
2022/05/06 07:22:16;;;;;;;6.43;3.73;;;;;;;;;;5045119;28;20549;-84
2022/05/06 07:24:42;;;;;;;4.60;2.80;;;;;;;;;;5047050;28;20429;-84
2022/05/06 07:27:08;;;;;;;4.37;3.30;;;;;;;;;;5044113;28;20419;-84
2022/05/06 07:29:35;;;;;;;4.50;3.20;;;;;;;;;;5055171;28;20405;-84
2022/05/06 07:32:01;;;;;;;4.20;3.47;;;;;;;;;;5039789;28;20427;-84
2022/05/06 07:34:28;;;;;;;4.97;3.60;;;;;;;;;;5044761;28;20423;-83
2022/05/06 07:36:54;;;;;;;4.30;3.30;;;;;;;;;;5043120;28;20461;-84
2022/05/06 07:39:21;;;;;;;3.80;3.30;;;;;;;;;;5026870;28;20426;-84
2022/05/06 07:41:47;;;;;;;4.33;3.70;;;;;;;;;;5033773;28;20454;-84
2022/05/06 07:44:13;;;;;;;6.00;3.10;;;;;;;;;;5034292;28;20465;-84
2022/05/06 07:46:39;;;;;;;5.93;3.57;;;;;;;;;;5026315;28;20400;-84
2022/05/06 07:49:06;;;;;;;5.97;3.70;;;;;;;;;;5039066;28;20422;-84
2022/05/06 07:51:32;;;;;;;5.80;4.90;;;;;;;;;;5034163;28;20412;-84
2022/05/06 07:53:58;;;;;;;4.57;3.87;;;;;;;;;;5029753;28;20418;-84
2022/05/06 07:56:25;;;;;;;5.27;4.67;;;;;;;;;;5049184;28;20417;-84
2022/05/06 07:58:52;;;;;;;4.83;4.33;;;;;;;;;;5048836;28;20399;-84
2022/05/06 08:04:32;;;;;;;4.40;4.00;;;;;;;;;;5048807;28;20446;-84
2022/05/06 08:06:50;;;;;;;6.47;4.83;;;;;;;;;;5043018;28;20458;-84
2022/05/06 08:09:16;;;;;;;10.10;4.60;;;;;;;;;;5028924;28;20396;-82
2022/05/06 08:11:42;;;;;;;4.80;4.30;;;;;;;;;;5028110;28;20407;-83
2022/05/06 08:14:08;;;;;;;6.03;4.60;;;;;;;;;;5026360;28;20457;-82
2022/05/06 08:16:34;;;;;;;6.50;5.10;;;;;;;;;;5040547;28;20463;-83
2022/05/06 08:19:00;;;;;;;6.40;5.37;;;;;;;;;;5029429;28;20240;-83
2022/05/06 08:21:26;;;;;;;9.90;5.50;;;;;;;;;;5044209;28;20462;-83
2022/05/06 08:23:52;;;;;;;6.70;5.53;;;;;;;;;;5056941;28;20411;-82
2022/05/06 08:26:18;;;;;;;6.40;5.37;;;;;;;;;;5066479;28;20166;-82
2022/05/06 08:28:45;;;;;;;6.53;5.83;;;;;;;;;;5039814;28;20418;-82
2022/05/06 08:31:11;;;;;;;7.93;6.73;;;;;;;;;;5038783;28;20514;-82
2022/05/06 08:33:37;;;;;;;9.50;6.60;;;;;;;;;;5024059;28;20493;-82
2022/05/06 08:36:07;;;;;;;9.30;7.67;;;;;;;;;;5026990;28;20831;-83
2022/05/06 08:38:33;;;;;;;10.17;7.10;;;;;;;;;;5034980;28;20402;-83
2022/05/06 08:41:00;;;;;;;7.33;6.50;;;;;;;;;;5045350;28;20450;-83
2022/05/06 08:43:26;;;;;;;8.63;6.97;;;;;;;;;;5018770;28;20475;-82
2022/05/06 08:51:33;;;;;;;9.00;8.10;;;;;;;;;;5026781;28;20441;-82
2022/05/06 08:53:59;;;;;;;12.83;9.97;;;;;;;;;;5034935;28;20498;-83
2022/05/06 08:56:26;;;;;;;10.63;9.53;;;;;;;;;;5022058;28;20457;-83
2022/05/06 08:58:52;;;;;;;11.80;9.70;;;;;;;;;;5039851;28;20770;-82
2022/05/06 09:01:21;;;;;;;12.07;10.77;;;;;;;;;;5042085;28;20450;-82
2022/05/06 09:03:48;;;;;;;15.57;11.50;;;;;;;;;;5039565;28;20442;-82
2022/05/06 09:06:21;;;;;;;17.40;12.10;;;;;;;;;;5040404;28;20401;-82
2022/05/06 09:08:48;;;;;;;16.10;11.70;;;;;;;;;;5037358;28;20426;-83
2022/05/06 09:11:14;;;;;;;13.87;12.20;;;;;;;;;;5030618;28;20936;-83
2022/05/06 09:13:55;;;;;;;16.80;13.63;;;;;;;;;;5024805;28;20427;-83
2022/05/06 09:16:41;;;;;;;15.20;12.67;;;;;;;;;;5036605;28;20422;-83
2022/05/06 09:19:13;;;;;;;17.75;15.20;;;;;;;;;;5041012;28;20444;-83
2022/05/06 09:21:59;;;;;;;15.47;13.87;;;;;;;;;;5038209;28;20450;-83
2022/05/06 09:24:28;;;;;;;16.07;14.37;;;;;;;;;;5039875;28;20434;-84
2022/05/06 09:27:05;;;;;;;14.37;12.87;;;;;;;;;;5037940;28;20411;-83
2022/05/06 09:29:33;;;;;;;18.03;14.10;;;;;;;;;;5039749;28;20491;-82
2022/05/06 09:32:18;;;;;;;20.37;15.77;;;;;;;;;;5013335;28;20442;-82
2022/05/06 09:34:49;;;;;;;23.40;17.83;;;;;;;;;;5028958;28;20412;-81
2022/05/06 09:37:34;;;;;;;19.43;16.30;;;;;;;;;;5026691;28;20387;-83
2022/05/06 09:40:07;;;;;;;21.07;18.07;;;;;;;;;;5026399;28;20474;-82
2022/05/06 09:42:34;;;;;;;22.30;17.03;;;;;;;;;;5032870;28;20473;-83
2022/05/06 09:45:03;;;;;;;21.43;17.40;;;;;;;;;;5047011;28;20462;-84
2022/05/06 09:47:32;;;;;;;22.17;17.70;;;;;;;;;;5040760;28;20437;-82
2022/05/06 09:49:58;;;;;;;23.13;19.47;;;;;;;;;;5054730;23;20490;-86
2022/05/06 09:52:24;;;;;;;30.40;20.33;;;;;;;;;;5025475;28;20502;-87
2022/05/06 09:54:51;;;;;;;21.30;18.53;;;;;;;;;;5024414;28;20457;-85
2022/05/06 09:57:18;;;;;;;23.40;20.87;;;;;;;;;;5025316;28;20417;-85
2022/05/06 09:59:45;;;;;;;27.70;21.13;;;;;;;;;;5025097;28;20429;-86
2022/05/06 10:02:11;;;;;;;26.20;20.70;;;;;;;;;;5025497;28;20456;-85
2022/05/06 10:04:37;;;;;;;27.77;21.60;;;;;;;;;;5026232;28;20454;-83
2022/05/06 10:07:06;;;;;;;22.17;19.13;;;;;;;;;;5029047;28;20396;-83
2022/05/06 10:09:36;;;;;;;30.93;21.27;;;;;;;;;;5024791;28;20423;-83
2022/05/06 10:12:03;;;;;;;25.03;20.80;;;;;;;;;;5025790;28;20467;-84
2022/05/06 10:14:30;;;;;;;21.47;19.10;;;;;;;;;;5034874;28;20446;-84
2022/05/06 10:16:57;;;;;;;23.83;20.43;;;;;;;;;;5030165;28;20403;-84
2022/05/06 10:19:38;;;;;;;23.70;20.03;;;;;;;;;;5032593;28;20432;-84
2022/05/06 10:22:04;;;;;;;18.23;16.40;;;;;;;;;;5034649;28;20443;-84
2022/05/06 10:24:49;;;;;;;21.43;19.13;;;;;;;;;;5033871;28;20896;-83
2022/05/06 10:33:17;;;;;;;21.47;19.20;;;;;;;;;;5025134;28;20391;-85
2022/05/06 10:35:44;;;;;;;21.50;19.10;;;;;;;;;;5023548;28;20419;-85
2022/05/06 10:38:17;;;;;;;24.23;20.23;;;;;;;;;;5023029;28;20407;-85
2022/05/06 10:40:56;;;;;;;23.90;19.87;;;;;;;;;;5023564;28;20563;-85
2022/05/06 10:43:48;;;;;;;23.17;20.70;;;;;;;;;;5022937;28;20395;-85
2022/05/06 10:46:30;;;;;;;27.73;20.90;;;;;;;;;;5020595;28;21045;-85
2022/05/06 10:48:56;;;;;;;26.57;23.20;;;;;;;;;;5021919;28;20439;-85
2022/05/06 10:51:24;;;;;;;23.00;19.93;;;;;;;;;;5034163;28;20464;-85
2022/05/06 10:53:50;;;;;;;27.67;24.00;;;;;;;;;;5023721;28;20419;-85
2022/05/06 10:56:16;;;;;;;28.30;23.50;;;;;;;;;;5022279;28;20418;-85
2022/05/06 10:58:43;;;;;;;27.47;23.47;;;;;;;;;;5022683;28;20427;-86
2022/05/06 11:01:18;;;;;;;30.80;24.90;;;;;;;;;;5021280;28;20443;-85
2022/05/06 11:04:02;;;;;;;25.70;23.00;;;;;;;;;;5020815;28;20418;-85
2022/05/06 11:06:28;;;;;;;23.50;21.00;;;;;;;;;;5020773;28;20459;-85
2022/05/06 11:08:54;;;;;;;28.03;23.70;;;;;;;;;;5020867;28;20482;-85
2022/05/06 11:11:20;;;;;;;25.33;22.37;;;;;;;;;;5020939;28;20414;-85
2022/05/06 11:13:51;;;;;;;28.63;23.87;;;;;;;;;;5020727;28;20408;-85
2022/05/06 11:16:17;;;;;;;27.47;24.57;;;;;;;;;;5022054;28;20395;-84
2022/05/06 11:18:44;;;;;;;26.10;23.30;;;;;;;;;;5020286;28;20427;-84
2022/05/06 11:21:23;;;;;;;30.67;25.40;;;;;;;;;;5021322;28;20443;-84
2022/05/06 11:23:49;;;;;;;26.77;23.87;;;;;;;;;;5024882;28;20430;-84
2022/05/06 11:26:25;;;;;;;26.63;23.73;;;;;;;;;;5025230;28;20774;-85
2022/05/06 11:29:04;;;;;;;28.77;24.13;;;;;;;;;;5026274;28;20415;-85
2022/05/06 11:31:32;;;;;;;26.63;23.43;;;;;;;;;;5026339;28;20410;-85
2022/05/06 11:34:02;;;;;;;25.83;23.03;;;;;;;;;;5026893;28;20467;-85
2022/05/06 11:36:28;;;;;;;25.07;22.47;;;;;;;;;;5025695;28;20412;-85
2022/05/06 11:38:54;;;;;;;32.57;27.57;;;;;;;;;;5025589;28;20431;-85
2022/05/06 11:41:20;;;;;;;31.67;26.97;;;;;;;;;;5027296;28;20447;-85
2022/05/06 11:43:47;;;;;;;28.07;25.07;;;;;;;;;;5030782;28;20411;-85
2022/05/06 11:49:05;;;;;;;28.53;25.20;;;;;;;;;;5028047;28;20477;-85
2022/05/06 11:51:35;;;;;;;24.50;21.90;;;;;;;;;;5027892;28;20414;-85
2022/05/06 11:54:02;;;;;;;27.87;20.07;;;;;;;;;;5027633;28;20406;-86
2022/05/06 11:56:29;;;;;;;23.27;20.73;;;;;;;;;;5027342;28;20407;-85
2022/05/06 11:58:59;;;;;;;23.37;20.83;;;;;;;;;;5027935;28;20424;-85
2022/05/06 12:01:29;;;;;;;26.20;22.77;;;;;;;;;;5027202;28;20501;-86
2022/05/06 12:03:59;;;;;;;27.60;22.87;;;;;;;;;;5030505;28;20414;-85
2022/05/06 12:06:31;;;;;;;28.60;25.57;;;;;;;;;;5027417;28;20407;-86
2022/05/06 12:09:07;;;;;;;25.30;22.63;;;;;;;;;;5026637;28;20798;-85
2022/05/06 12:11:33;;;;;;;29.17;22.97;;;;;;;;;;5027283;28;20438;-86
2022/05/06 12:14:05;;;;;;;27.90;24.90;;;;;;;;;;5028202;28;20779;-86
2022/05/06 12:16:31;;;;;;;26.57;23.70;;;;;;;;;;5026403;28;20407;-86
2022/05/06 12:18:58;;;;;;;29.13;25.33;;;;;;;;;;5026447;28;20849;-85
2022/05/06 12:21:26;;;;;;;27.87;24.37;;;;;;;;;;5027304;28;20443;-86
2022/05/06 12:23:53;;;;;;;28.30;25.20;;;;;;;;;;5028001;28;20411;-86
2022/05/06 12:26:28;;;;;;;26.40;23.70;;;;;;;;;;5028134;28;20942;-86
2022/05/06 12:28:54;;;;;;;25.60;21.27;;;;;;;;;;5026928;28;20510;-86
2022/05/06 12:31:28;;;;;;;25.53;22.83;;;;;;;;;;5026134;28;20904;-86
2022/05/06 12:34:00;;;;;;;26.70;23.90;;;;;;;;;;5025379;28;20414;-86
2022/05/06 12:36:26;;;;;;;23.70;20.90;;;;;;;;;;5025939;28;20411;-86
2022/05/06 12:38:52;;;;;;;23.60;19.53;;;;;;;;;;5025822;28;20429;-86
2022/05/06 12:41:19;;;;;;;19.90;17.77;;;;;;;;;;5025911;28;20447;-85
2022/05/06 12:43:45;;;;;;;20.87;18.63;;;;;;;;;;5030377;28;20479;-84
2022/05/06 12:46:12;;;;;;;20.23;17.97;;;;;;;;;;5036054;28;20511;-85
2022/05/06 12:51:23;;;;;;;19.77;17.67;;;;;;;;;;5033985;28;20395;-85
2022/05/06 12:53:49;;;;;;;22.37;19.97;;;;;;;;;;5026779;28;20404;-85
2022/05/06 12:56:19;;;;;;;25.43;20.23;;;;;;;;;;5026527;28;20399;-85
2022/05/06 12:58:45;;;;;;;20.03;17.03;;;;;;;;;;5025899;28;20416;-86
2022/05/06 13:01:11;;;;;;;22.93;18.40;;;;;;;;;;5025612;28;20458;-85
2022/05/06 13:03:37;;;;;;;22.10;19.70;;;;;;;;;;5027633;28;20415;-85
2022/05/06 13:06:03;;;;;;;20.17;18.07;;;;;;;;;;5033271;28;20431;-85
2022/05/06 13:08:29;;;;;;;22.03;19.67;;;;;;;;;;5033403;28;20482;-84
2022/05/06 13:10:55;;;;;;;23.83;19.60;;;;;;;;;;5034389;28;20419;-84
2022/05/06 13:13:22;;;;;;;22.87;20.43;;;;;;;;;;5007853;28;20832;-86
2022/05/06 13:15:48;;;;;;;25.80;20.40;;;;;;;;;;5023646;28;20479;-86
2022/05/06 13:18:15;;;;;;;25.37;22.63;;;;;;;;;;5023573;28;20415;-84
2022/05/06 13:20:41;;;;;;;24.27;20.40;;;;;;;;;;5025881;28;20426;-83
2022/05/06 13:23:07;;;;;;;20.87;18.77;;;;;;;;;;5041129;28;20537;-84
2022/05/06 13:25:35;;;;;;;26.93;21.93;;;;;;;;;;5037974;28;20411;-83
2022/05/06 13:28:01;;;;;;;24.90;20.63;;;;;;;;;;5044809;28;20438;-82
2022/05/06 13:30:27;;;;;;;26.73;23.03;;;;;;;;;;5046439;28;20422;-82
2022/05/06 13:32:53;;;;;;;24.30;21.77;;;;;;;;;;5021278;28;20904;-82
2022/05/06 13:35:20;;;;;;;23.83;21.33;;;;;;;;;;5023498;28;20423;-82
2022/05/06 13:37:46;;;;;;;27.13;19.00;;;;;;;;;;5048099;28;20406;-85
2022/05/06 13:40:12;;;;;;;20.40;18.13;;;;;;;;;;5041830;28;20478;-84
2022/05/06 13:42:38;;;;;;;20.97;18.77;;;;;;;;;;5042946;28;20461;-85
2022/05/06 13:45:04;;;;;;;21.53;19.23;;;;;;;;;;5041484;28;20437;-85
2022/05/06 13:47:30;;;;;;;20.90;18.13;;;;;;;;;;5042174;28;20402;-86
2022/05/06 13:49:57;;;;;;;17.73;15.70;;;;;;;;;;5041450;28;20988;-85
2022/05/06 13:52:23;;;;;;;18.70;14.93;;;;;;;;;;5042010;28;20411;-85
2022/05/06 13:54:49;;;;;;;17.47;14.47;;;;;;;;;;5039205;28;20912;-85
2022/05/06 14:00:00;;;;;;;13.17;11.87;;;;;;;;;;5038361;28;20461;-82
2022/05/06 14:02:26;;;;;;;15.80;12.37;;;;;;;;;;5037529;28;20603;-83
2022/05/06 14:04:52;;;;;;;14.83;13.33;;;;;;;;;;5039135;28;20407;-83
2022/05/06 14:07:18;;;;;;;13.93;12.53;;;;;;;;;;5040047;28;20414;-84
2022/05/06 14:09:44;;;;;;;13.30;11.50;;;;;;;;;;5038757;28;20430;-83
2022/05/06 14:12:10;;;;;;;13.60;12.30;;;;;;;;;;5037123;28;20451;-84
2022/05/06 14:14:36;;;;;;;13.33;11.93;;;;;;;;;;5039627;28;20415;-83
2022/05/06 14:17:02;;;;;;;13.53;12.13;;;;;;;;;;5040800;28;20440;-82
2022/05/06 14:19:28;;;;;;;12.73;11.40;;;;;;;;;;5038760;28;21013;-83
2022/05/06 14:21:54;;;;;;;15.77;13.97;;;;;;;;;;5040261;28;20474;-83
2022/05/06 14:24:20;;;;;;;14.50;12.27;;;;;;;;;;5038992;28;20433;-84
2022/05/06 14:26:46;;;;;;;15.33;13.73;;;;;;;;;;5038169;28;20418;-81
2022/05/06 14:29:13;;;;;;;11.93;10.73;;;;;;;;;;5039959;28;20485;-83
2022/05/06 14:31:39;;;;;;;13.10;11.60;;;;;;;;;;5038134;28;20835;-83
2022/05/06 14:34:05;;;;;;;11.90;10.43;;;;;;;;;;5038994;28;20421;-83
2022/05/06 14:36:31;;;;;;;18.80;11.30;;;;;;;;;;5039193;28;20176;-83
2022/05/06 14:38:57;;;;;;;12.83;11.63;;;;;;;;;;5040436;28;20429;-85
2022/05/06 14:41:23;;;;;;;12.87;10.17;;;;;;;;;;5039458;28;20454;-85
2022/05/06 14:43:49;;;;;;;11.37;10.17;;;;;;;;;;5041065;28;20395;-85
2022/05/06 14:46:15;;;;;;;11.57;9.57;;;;;;;;;;5039835;28;20414;-84
2022/05/06 14:48:41;;;;;;;13.87;11.43;;;;;;;;;;5040522;28;20430;-84
2022/05/06 14:51:07;;;;;;;12.00;10.80;;;;;;;;;;5041577;28;20421;-86
2022/05/06 14:53:34;;;;;;;13.30;12.00;;;;;;;;;;5041622;28;20406;-84
2022/05/06 14:56:00;;;;;;;13.10;11.53;;;;;;;;;;5041166;28;20428;-83
2022/05/06 14:58:26;;;;;;;14.00;12.60;;;;;;;;;;5040616;28;20453;-85
2022/05/06 15:00:52;;;;;;;14.60;12.10;;;;;;;;;;5045248;28;20454;-85
2022/05/06 15:03:18;;;;;;;15.93;12.77;;;;;;;;;;5045699;28;20444;-85
2022/05/06 15:05:44;;;;;;;12.30;10.87;;;;;;;;;;5045865;28;20410;-85
2022/05/06 15:08:10;;;;;;;12.50;10.40;;;;;;;;;;5045455;28;20418;-86
2022/05/06 15:10:36;;;;;;;11.93;10.20;;;;;;;;;;5044125;28;20968;-85
2022/05/06 15:13:03;;;;;;;12.23;10.90;;;;;;;;;;5055512;28;20482;-84
2022/05/06 15:15:29;;;;;;;13.70;12.30;;;;;;;;;;5052198;28;20414;-86
2022/05/06 15:19:23;;;;;;;12.60;11.30;;;;;;;;;;5050007;28;20410;-82
2022/05/06 15:20:41;;;;;;;12.53;10.47;;;;;;;;;;5047356;28;20828;-86